createdAt,value
2023-03-22T00:00:06.068Z,7.8
2023-03-22T00:01:06.030Z,7.8
2023-03-22T00:02:06.207Z,7.8
2023-03-22T00:03:06.597Z,7.8
2023-03-22T00:04:06.664Z,7.9
2023-03-22T00:05:05.872Z,7.8
2023-03-22T00:06:05.843Z,7.8
2023-03-22T00:07:06.351Z,7.8
2023-03-22T00:08:06.608Z,7.8
2023-03-22T00:09:05.761Z,7.8
2023-03-22T00:10:06.237Z,7.8
2023-03-22T00:11:05.992Z,7.8
2023-03-22T00:12:06.441Z,7
2023-03-22T00:13:06.778Z,7.8
2023-03-22T00:14:05.768Z,7.7
2023-03-22T00:15:06.356Z,7.7
2023-03-22T00:16:06.794Z,7.8
2023-03-22T00:17:06.690Z,7
2023-03-22T00:18:05.918Z,7.7
2023-03-22T00:19:06.229Z,7.8
2023-03-22T00:20:06.607Z,7.7
2023-03-22T00:21:06.068Z,7.8
2023-03-22T00:22:06.422Z,7.8
2023-03-22T00:23:06.510Z,7.8
2023-03-22T00:24:05.792Z,7.8
2023-03-22T00:25:05.981Z,7.8
2023-03-22T00:26:05.882Z,7.8
2023-03-22T00:27:06.114Z,7.8
2023-03-22T00:28:06.597Z,7.8
2023-03-22T00:29:07.056Z,7.8
2023-03-22T00:30:06.151Z,7
2023-03-22T00:31:06.990Z,7.8
2023-03-22T00:32:05.960Z,7.8
2023-03-22T00:33:06.036Z,7.8
2023-03-22T00:34:06.544Z,7.8
2023-03-22T00:35:06.803Z,7.8
2023-03-22T00:36:06.091Z,7.8
2023-03-22T00:37:06.200Z,7.8
2023-03-22T00:38:06.282Z,7.9
2023-03-22T00:39:06.614Z,7.9
2023-03-22T00:40:06.034Z,7.9
2023-03-22T00:41:06.124Z,7
2023-03-22T00:42:06.627Z,7
2023-03-22T00:43:05.988Z,8
2023-03-22T00:44:06.182Z,8
2023-03-22T00:45:06.419Z,8
2023-03-22T00:46:07.014Z,8
2023-03-22T00:47:05.946Z,8.1
2023-03-22T00:48:06.505Z,8.1
2023-03-22T00:49:06.760Z,8.1
2023-03-22T00:50:05.886Z,8.1
2023-03-22T00:51:06.201Z,8.1
2023-03-22T00:52:06.551Z,8.1
2023-03-22T00:53:06.758Z,8.1
2023-03-22T00:54:06.110Z,8.2
2023-03-22T00:55:06.275Z,8.2
2023-03-22T00:56:06.392Z,8.2
2023-03-22T00:57:06.717Z,8.2
2023-03-22T00:58:06.729Z,8.2
2023-03-22T00:59:05.880Z,8.2
2023-03-22T01:00:06.516Z,8.3
2023-03-22T01:01:06.537Z,8.2
2023-03-22T01:02:06.557Z,8.3
2023-03-22T01:03:06.921Z,8.3
2023-03-22T01:04:05.887Z,8.3
2023-03-22T01:05:06.232Z,8.3
2023-03-22T01:06:06.539Z,8.3
2023-03-22T01:07:05.854Z,8.3
2023-03-22T01:08:05.975Z,8.3
2023-03-22T01:09:06.374Z,8.4
2023-03-22T01:10:06.818Z,8
2023-03-22T01:11:05.764Z,8.4
2023-03-22T01:12:06.285Z,8.3
2023-03-22T01:13:06.395Z,8.4
2023-03-22T01:14:05.868Z,8.4
2023-03-22T01:15:05.956Z,8.4
2023-03-22T01:16:06.586Z,8.4
2023-03-22T01:17:06.739Z,8.4
2023-03-22T01:18:05.890Z,8
2023-03-22T01:19:06.390Z,8.4
2023-03-22T01:20:06.390Z,8.4
2023-03-22T01:21:06.549Z,8.4
2023-03-22T01:22:05.811Z,8.4
2023-03-22T01:23:05.901Z,8.4
2023-03-22T01:24:06.474Z,8.4
2023-03-22T01:25:06.806Z,8.4
2023-03-22T01:26:05.995Z,8.4
2023-03-22T01:27:06.142Z,8.4
2023-03-22T01:28:06.303Z,8.4
2023-03-22T01:29:06.737Z,8.4
2023-03-22T01:30:05.776Z,8.5
2023-03-22T01:31:06.518Z,8.5
2023-03-22T01:32:06.442Z,8.4
2023-03-22T01:33:06.474Z,8.5
2023-03-22T01:34:05.771Z,8.5
2023-03-22T01:35:05.988Z,8.4
2023-03-22T01:36:06.437Z,8.4
2023-03-22T01:37:06.650Z,8.4
2023-03-22T01:38:06.964Z,8.4
2023-03-22T01:39:06.173Z,8.4
2023-03-22T01:40:06.488Z,8.4
2023-03-22T01:41:06.041Z,8.4
2023-03-22T01:42:06.316Z,8.4
2023-03-22T01:43:06.583Z,8.4
2023-03-22T01:44:06.768Z,8.4
2023-03-22T01:45:05.803Z,8.4
2023-03-22T01:46:06.134Z,8.5
2023-03-22T01:47:06.453Z,8.5
2023-03-22T01:48:06.056Z,8.5
2023-03-22T01:49:06.334Z,8.5
2023-03-22T01:50:06.289Z,8.5
2023-03-22T01:51:06.650Z,8.5
2023-03-22T01:52:05.811Z,8.5
2023-03-22T01:53:06.286Z,8.5
2023-03-22T01:54:06.720Z,8.5
2023-03-22T01:55:06.033Z,8.5
2023-03-22T01:56:06.353Z,8.5
2023-03-22T01:57:06.482Z,8.5
2023-03-22T01:58:06.662Z,8.5
2023-03-22T01:59:05.817Z,8.5
2023-03-22T02:00:05.918Z,8.5
2023-03-22T02:01:06.459Z,8.5
2023-03-22T02:02:06.485Z,8.5
2023-03-22T02:03:06.165Z,8.5
2023-03-22T02:04:06.486Z,8.5
2023-03-22T02:05:06.511Z,8.5
2023-03-22T02:06:06.701Z,8.6
2023-03-22T02:07:05.538Z,8.6
2023-03-22T02:08:06.088Z,8.6
2023-03-22T02:09:06.517Z,8.6
2023-03-22T02:10:05.895Z,8
2023-03-22T02:11:06.029Z,8
2023-03-22T02:12:06.405Z,8.6
2023-03-22T02:13:06.690Z,8
2023-03-22T02:14:05.777Z,8.6
2023-03-22T02:15:06.080Z,8.6
2023-03-22T02:16:06.407Z,8.6
2023-03-22T02:17:06.423Z,8.6
2023-03-22T02:18:05.933Z,8.6
2023-03-22T02:19:06.234Z,8.6
2023-03-22T02:20:06.682Z,8.6
2023-03-22T02:21:06.751Z,8.6
2023-03-22T02:22:05.934Z,8.6
2023-03-22T02:23:06.402Z,8.5
2023-03-22T02:24:06.623Z,8.6
2023-03-22T02:25:05.896Z,8.6
2023-03-22T02:26:06.093Z,8
2023-03-22T02:27:06.271Z,8.5
2023-03-22T02:28:06.590Z,8.5
2023-03-22T02:29:06.682Z,8.5
2023-03-22T02:30:06.254Z,8.4
2023-03-22T02:31:06.416Z,8.4
2023-03-22T02:32:06.563Z,8.4
2023-03-22T02:33:06.079Z,8.4
2023-03-22T02:34:06.220Z,8.4
2023-03-22T02:35:06.638Z,8.4
2023-03-22T02:36:06.256Z,8.4
2023-03-22T02:37:06.735Z,8.4
2023-03-22T02:38:05.848Z,8.4
2023-03-22T02:39:06.248Z,8.4
2023-03-22T02:40:06.560Z,8.4
2023-03-22T02:41:06.083Z,8.4
2023-03-22T02:42:06.263Z,8.4
2023-03-22T02:43:06.566Z,8.4
2023-03-22T02:44:06.879Z,8.4
2023-03-22T02:45:06.179Z,8.4
2023-03-22T02:46:06.311Z,8.4
2023-03-22T02:47:06.501Z,8.4
2023-03-22T02:48:06.093Z,8.4
2023-03-22T02:49:06.190Z,8.4
2023-03-22T02:50:06.236Z,8
2023-03-22T02:51:06.319Z,8.4
2023-03-22T02:52:06.730Z,8.4
2023-03-22T02:53:05.961Z,8.4
2023-03-22T02:54:06.067Z,8.4
2023-03-22T02:55:06.253Z,8.4
2023-03-22T02:56:06.035Z,8.5
2023-03-22T02:57:06.447Z,8.4
2023-03-22T02:58:06.560Z,8.4
2023-03-22T02:59:06.655Z,8.4
2023-03-22T03:00:05.886Z,8.4
2023-03-22T03:01:06.490Z,8.4
2023-03-22T03:02:06.870Z,8.4
2023-03-22T03:03:05.829Z,8.4
2023-03-22T03:04:06.182Z,8.5
2023-03-22T03:05:06.711Z,8.4
2023-03-22T03:06:06.429Z,8.4
2023-03-22T03:07:06.324Z,8.5
2023-03-22T03:08:05.858Z,8.4
2023-03-22T03:09:05.982Z,8.4
2023-03-22T03:10:06.260Z,8.5
2023-03-22T03:11:06.127Z,8.5
2023-03-22T03:12:06.454Z,8.5
2023-03-22T03:13:06.571Z,8.5
2023-03-22T03:14:05.947Z,8.5
2023-03-22T03:15:06.041Z,8.5
2023-03-22T03:16:06.761Z,8.5
2023-03-22T03:17:05.922Z,8.5
2023-03-22T03:18:06.221Z,8.5
2023-03-22T03:19:06.394Z,8.5
2023-03-22T03:20:05.705Z,8.5
2023-03-22T03:21:06.012Z,8.5
2023-03-22T03:22:06.523Z,8.5
2023-03-22T03:23:05.683Z,8.5
2023-03-22T03:24:06.376Z,8.5
2023-03-22T03:25:06.567Z,8.5
2023-03-22T03:26:06.400Z,8.5
2023-03-22T03:27:06.896Z,8.5
2023-03-22T03:28:05.961Z,8.5
2023-03-22T03:29:06.156Z,8.5
2023-03-22T03:30:06.450Z,9
2023-03-22T03:31:06.827Z,8.5
2023-03-22T03:32:06.060Z,8.5
2023-03-22T03:33:06.414Z,8.6
2023-03-22T03:34:06.635Z,8.6
2023-03-22T03:35:05.946Z,8.5
2023-03-22T03:36:06.055Z,8.5
2023-03-22T03:37:06.287Z,8.5
2023-03-22T03:38:06.368Z,8.5
2023-03-22T03:39:06.584Z,8.5
2023-03-22T03:40:06.840Z,8.4
2023-03-22T03:41:05.985Z,8.5
2023-03-22T03:42:06.259Z,8.4
2023-03-22T03:43:06.757Z,8.4
2023-03-22T03:44:05.733Z,8.4
2023-03-22T03:45:06.262Z,8.4
2023-03-22T03:46:06.232Z,8.4
2023-03-22T03:47:06.009Z,8.4
2023-03-22T03:48:07.441Z,8.4
2023-03-22T03:49:05.966Z,8.4
2023-03-22T03:50:06.495Z,8
2023-03-22T03:51:06.497Z,8.3
2023-03-22T03:52:05.792Z,8.3
2023-03-22T03:53:06.117Z,8.3
2023-03-22T03:54:06.171Z,8.2
2023-03-22T03:55:06.658Z,8.3
2023-03-22T03:56:06.107Z,8.2
2023-03-22T03:57:08.186Z,8.2
2023-03-22T03:58:06.424Z,8
2023-03-22T03:59:05.828Z,8.2
2023-03-22T04:00:06.125Z,8.2
2023-03-22T04:01:06.236Z,8.2
2023-03-22T04:02:07.080Z,8.2
2023-03-22T04:03:05.919Z,8.2
2023-03-22T04:04:06.253Z,8.1
2023-03-22T04:05:06.250Z,8.1
2023-03-22T04:06:06.412Z,8.1
2023-03-22T04:07:06.308Z,8
2023-03-22T04:08:05.909Z,8
2023-03-22T04:09:06.231Z,8
2023-03-22T04:10:06.525Z,8
2023-03-22T04:11:06.259Z,8
2023-03-22T04:12:06.503Z,8
2023-03-22T04:13:06.717Z,8
2023-03-22T04:14:06.075Z,8
2023-03-22T04:15:06.525Z,8
2023-03-22T04:16:06.631Z,7.9
2023-03-22T04:17:05.840Z,7.9
2023-03-22T04:18:06.012Z,7.9
2023-03-22T04:19:06.608Z,7.8
2023-03-22T04:20:08.157Z,7.8
2023-03-22T04:21:05.894Z,7.8
2023-03-22T04:22:06.161Z,8
2023-03-22T04:23:06.395Z,7.7
2023-03-22T04:24:06.494Z,8
2023-03-22T04:25:05.877Z,7.5
2023-03-22T04:26:06.096Z,7.5
2023-03-22T04:27:06.316Z,7.4
2023-03-22T04:28:06.539Z,7.4
2023-03-22T04:29:06.813Z,7.3
2023-03-22T04:30:06.028Z,7.3
2023-03-22T04:31:06.420Z,7.3
2023-03-22T04:32:06.591Z,7.3
2023-03-22T04:33:05.947Z,7.3
2023-03-22T04:34:06.217Z,7.3
2023-03-22T04:35:06.430Z,7
2023-03-22T04:36:08.630Z,7.3
2023-03-22T04:37:06.029Z,7.3
2023-03-22T04:38:06.375Z,7.3
2023-03-22T04:39:06.666Z,7.3
2023-03-22T04:40:06.044Z,7
2023-03-22T04:41:06.166Z,7.3
2023-03-22T04:42:06.508Z,7.3
2023-03-22T04:43:05.644Z,7.3
2023-03-22T04:44:06.445Z,7.3
2023-03-22T04:45:06.510Z,7.3
2023-03-22T04:46:06.143Z,7.3
2023-03-22T04:47:06.345Z,7.3
2023-03-22T04:48:06.353Z,7.3
2023-03-22T04:49:06.712Z,7.2
2023-03-22T04:50:06.032Z,7.3
2023-03-22T04:51:06.379Z,7.2
2023-03-22T04:52:06.558Z,7.2
2023-03-22T04:53:05.866Z,7.1
2023-03-22T04:54:06.129Z,7.1
2023-03-22T04:55:06.531Z,7
2023-03-22T04:56:06.905Z,7
2023-03-22T04:57:05.978Z,7
2023-03-22T04:58:06.298Z,6.9
2023-03-22T04:59:06.452Z,6.9
2023-03-22T05:00:06.633Z,6.9
2023-03-22T05:01:06.788Z,6.8
2023-03-22T05:02:06.145Z,6.8
2023-03-22T05:03:06.396Z,6.8
2023-03-22T05:04:06.649Z,6
2023-03-22T05:05:06.214Z,6.8
2023-03-22T05:06:06.513Z,6.8
2023-03-22T05:07:06.756Z,6.8
2023-03-22T05:08:05.860Z,6.7
2023-03-22T05:09:06.071Z,6.6
2023-03-22T05:10:06.653Z,6.6
2023-03-22T05:11:05.717Z,6.6
2023-03-22T05:12:06.122Z,6.5
2023-03-22T05:13:06.005Z,6.5
2023-03-22T05:14:06.494Z,6.4
2023-03-22T05:15:06.539Z,6.5
2023-03-22T05:16:06.935Z,6.4
2023-03-22T05:17:06.096Z,6.4
2023-03-22T05:18:06.476Z,6.4
2023-03-22T05:19:06.729Z,6.4
2023-03-22T05:20:05.848Z,6.4
2023-03-22T05:21:05.989Z,6.4
2023-03-22T05:22:05.938Z,6.3
2023-03-22T05:23:06.565Z,6.4
2023-03-22T05:24:05.766Z,6.4
2023-03-22T05:25:05.967Z,6.4
2023-03-22T05:26:06.454Z,6.4
2023-03-22T05:27:05.997Z,6.4
2023-03-22T05:28:05.993Z,6.4
2023-03-22T05:29:06.251Z,6.4
2023-03-22T05:30:06.539Z,6.4
2023-03-22T05:31:06.074Z,6
2023-03-22T05:32:06.103Z,6.4
2023-03-22T05:33:06.447Z,6.4
2023-03-22T05:34:06.711Z,6.4
2023-03-22T05:35:05.994Z,6.4
2023-03-22T05:36:05.866Z,6.4
2023-03-22T05:37:06.347Z,6.4
2023-03-22T05:38:06.494Z,6.4
2023-03-22T05:39:05.678Z,6.3
2023-03-22T05:40:06.285Z,6.4
2023-03-22T05:41:06.716Z,6.3
2023-03-22T05:42:05.857Z,6.3
2023-03-22T05:43:05.997Z,6.3
2023-03-22T05:44:06.307Z,6.3
2023-03-22T05:45:06.881Z,6.4
2023-03-22T05:46:06.365Z,6.4
2023-03-22T05:47:07.050Z,6.4
2023-03-22T05:48:06.125Z,6.4
2023-03-22T05:49:06.265Z,6.4
2023-03-22T05:50:06.584Z,6.4
2023-03-22T05:51:06.417Z,6.4
2023-03-22T05:52:06.622Z,6.4
2023-03-22T05:53:05.666Z,6.4
2023-03-22T05:54:06.413Z,6.4
2023-03-22T05:55:06.435Z,6.4
2023-03-22T05:56:06.835Z,6.4
2023-03-22T05:57:06.130Z,6.5
2023-03-22T05:58:05.914Z,6.5
2023-03-22T05:59:06.476Z,6
2023-03-22T06:00:06.610Z,6.6
2023-03-22T06:01:06.183Z,6.6
2023-03-22T06:02:06.580Z,6.6
2023-03-22T06:03:06.761Z,6.7
2023-03-22T06:04:05.992Z,6.7
2023-03-22T06:05:06.041Z,6.8
2023-03-22T06:06:06.253Z,6.8
2023-03-22T06:07:06.614Z,6.8
2023-03-22T06:08:05.864Z,6.8
2023-03-22T06:09:20.359Z,6.9
2023-03-22T06:10:06.130Z,6.9
2023-03-22T06:11:06.366Z,7
2023-03-22T06:12:06.563Z,7.1
2023-03-22T06:13:06.768Z,7.2
2023-03-22T06:14:06.179Z,7.2
2023-03-22T06:15:06.407Z,7.3
2023-03-22T06:16:05.722Z,7.4
2023-03-22T06:17:06.080Z,7.4
2023-03-22T06:18:06.135Z,7.4
2023-03-22T06:19:06.567Z,7.5
2023-03-22T06:20:06.165Z,7.6
2023-03-22T06:21:06.214Z,7.6
2023-03-22T06:22:06.713Z,7.6
2023-03-22T06:23:05.748Z,7.8
2023-03-22T06:24:05.966Z,7.8
2023-03-22T06:25:06.747Z,7.8
2023-03-22T06:26:05.582Z,8
2023-03-22T06:27:06.130Z,8
2023-03-22T06:28:08.811Z,8
2023-03-22T06:29:06.555Z,8
2023-03-22T06:30:06.814Z,8
2023-03-22T06:31:06.113Z,8.1
2023-03-22T06:32:06.592Z,8.2
2023-03-22T06:33:05.701Z,8.3
2023-03-22T06:34:06.093Z,8.3
2023-03-22T06:35:06.243Z,8.4
2023-03-22T06:36:06.586Z,8.4
2023-03-22T06:37:06.532Z,8.5
2023-03-22T06:38:06.046Z,8.5
2023-03-22T06:39:06.068Z,8.6
2023-03-22T06:40:06.391Z,8.7
2023-03-22T06:41:06.009Z,8.7
2023-03-22T06:42:06.339Z,8.8
2023-03-22T06:43:10.904Z,8.8
2023-03-22T06:44:05.934Z,8.8
2023-03-22T06:45:06.222Z,8.9
2023-03-22T06:46:06.766Z,9
2023-03-22T06:47:05.784Z,9
2023-03-22T06:48:06.119Z,9.1
2023-03-22T06:49:05.868Z,9.1
2023-03-22T06:50:06.532Z,9.2
2023-03-22T06:51:06.474Z,9.2
2023-03-22T06:52:06.763Z,9.2
2023-03-22T06:53:06.035Z,9.2
2023-03-22T06:54:06.066Z,8
2023-03-22T06:55:06.497Z,9.4
2023-03-22T06:56:06.699Z,9.4
2023-03-22T06:57:05.838Z,9.5
2023-03-22T06:58:05.826Z,9.6
2023-03-22T06:59:06.249Z,9.6
2023-03-22T07:00:06.603Z,9.6
2023-03-22T07:01:05.997Z,9.8
2023-03-22T07:02:05.957Z,9.8
2023-03-22T07:03:06.328Z,9.9
2023-03-22T07:04:06.568Z,10
2023-03-22T07:05:06.380Z,10
2023-03-22T07:06:06.897Z,10
2023-03-22T07:07:06.177Z,10
2023-03-22T07:08:06.406Z,10.2
2023-03-22T07:09:05.810Z,10.2
2023-03-22T07:10:06.347Z,10.3
2023-03-22T07:11:07.068Z,10.4
2023-03-22T07:12:06.445Z,10.5
2023-03-22T07:13:06.145Z,10.5
2023-03-22T07:14:06.222Z,10.5
2023-03-22T07:15:06.829Z,10.6
2023-03-22T07:16:06.298Z,10.6
2023-03-22T07:17:06.269Z,10.7
2023-03-22T07:18:06.685Z,10.8
2023-03-22T07:19:05.756Z,10.8
2023-03-22T07:20:06.323Z,10.9
2023-03-22T07:21:06.232Z,10
2023-03-22T07:22:06.524Z,10.9
2023-03-22T07:23:06.768Z,10.9
2023-03-22T07:24:05.967Z,10.9
2023-03-22T07:25:06.316Z,11
2023-03-22T07:26:06.284Z,11
2023-03-22T07:27:06.452Z,11
2023-03-22T07:28:06.848Z,11
2023-03-22T07:29:06.063Z,11
2023-03-22T07:30:07.692Z,11.2
2023-03-22T07:31:06.564Z,11.2
2023-03-22T07:32:06.181Z,11.3
2023-03-22T07:33:05.907Z,11.3
2023-03-22T07:34:06.312Z,11.3
2023-03-22T07:35:06.641Z,11.4
2023-03-22T07:36:06.755Z,11
2023-03-22T07:37:05.672Z,11.5
2023-03-22T07:38:06.037Z,11.5
2023-03-22T07:39:06.694Z,11.6
2023-03-22T07:40:06.813Z,11.6
2023-03-22T07:41:06.147Z,11
2023-03-22T07:42:06.169Z,11.7
2023-03-22T07:43:06.519Z,11.8
2023-03-22T07:44:20.834Z,11.8
2023-03-22T07:45:06.579Z,12
2023-03-22T07:46:06.727Z,12
2023-03-22T07:47:05.854Z,12.1
2023-03-22T07:48:06.466Z,12.1
2023-03-22T07:49:06.484Z,12.2
2023-03-22T07:50:05.992Z,12.2
2023-03-22T07:51:05.960Z,12.2
2023-03-22T07:52:06.284Z,12.2
2023-03-22T07:53:06.676Z,12.3
2023-03-22T07:54:07.780Z,12.4
2023-03-22T07:55:06.005Z,12.4
2023-03-22T07:56:06.640Z,12.4
2023-03-22T07:57:06.508Z,12.4
2023-03-22T07:58:06.550Z,12.5
2023-03-22T07:59:06.226Z,12.5
2023-03-22T08:00:05.906Z,12.5
2023-03-22T08:01:06.397Z,12.5
2023-03-22T08:02:05.972Z,12.5
2023-03-22T08:03:06.289Z,12.5
2023-03-22T08:04:06.186Z,12.5
2023-03-22T08:05:06.601Z,12.6
2023-03-22T08:06:06.106Z,12.6
2023-03-22T08:07:06.438Z,12.7
2023-03-22T08:08:06.574Z,12.7
2023-03-22T08:09:06.179Z,12.8
2023-03-22T08:10:06.733Z,12.8
2023-03-22T08:11:06.287Z,12.9
2023-03-22T08:12:06.906Z,12.9
2023-03-22T08:13:06.118Z,13
2023-03-22T08:14:06.107Z,13
2023-03-22T08:15:06.921Z,13
2023-03-22T08:16:06.564Z,13
2023-03-22T08:17:06.961Z,13.2
2023-03-22T08:18:06.166Z,12
2023-03-22T08:19:06.029Z,13.2
2023-03-22T08:20:06.457Z,13.4
2023-03-22T08:21:06.722Z,13.4
2023-03-22T08:22:05.824Z,13.4
2023-03-22T08:23:06.063Z,13.5
2023-03-22T08:24:06.200Z,13.6
2023-03-22T08:25:06.706Z,13.6
2023-03-22T08:26:06.719Z,13.6
2023-03-22T08:27:05.986Z,13.7
2023-03-22T08:28:06.193Z,13.8
2023-03-22T08:29:06.421Z,13.9
2023-03-22T08:30:06.875Z,14
2023-03-22T08:31:05.756Z,14
2023-03-22T08:32:06.444Z,14.1
2023-03-22T08:33:06.296Z,14.2
2023-03-22T08:34:06.632Z,14.2
2023-03-22T08:35:05.935Z,14.3
2023-03-22T08:36:06.342Z,14.3
2023-03-22T08:37:06.266Z,14.4
2023-03-22T08:38:05.473Z,14.5
2023-03-22T08:39:06.036Z,14.6
2023-03-22T08:40:06.564Z,14.6
2023-03-22T08:41:06.019Z,14.8
2023-03-22T08:42:06.228Z,14.8
2023-03-22T08:43:06.753Z,14.8
2023-03-22T08:44:06.137Z,14.9
2023-03-22T08:45:06.568Z,15
2023-03-22T08:46:05.822Z,15.1
2023-03-22T08:47:07.318Z,15.1
2023-03-22T08:48:06.405Z,15.2
2023-03-22T08:49:06.306Z,15.2
2023-03-22T08:50:06.058Z,14
2023-03-22T08:51:05.949Z,15.3
2023-03-22T08:52:06.174Z,15.4
2023-03-22T08:53:06.337Z,15.5
2023-03-22T08:54:06.484Z,15.5
2023-03-22T08:55:05.904Z,15.5
2023-03-22T08:56:06.140Z,15.6
2023-03-22T08:57:06.317Z,15.7
2023-03-22T08:58:06.552Z,15.8
2023-03-22T08:59:05.899Z,15.9
2023-03-22T09:00:06.370Z,16
2023-03-22T09:01:06.834Z,16
2023-03-22T09:02:06.719Z,16
2023-03-22T09:03:06.012Z,16.1
2023-03-22T09:04:06.364Z,16.3
2023-03-22T09:05:06.463Z,16.3
2023-03-22T09:06:05.912Z,16.3
2023-03-22T09:07:06.093Z,16.4
2023-03-22T09:08:18.104Z,16.4
2023-03-22T09:09:06.548Z,16.5
2023-03-22T09:10:06.781Z,16.5
2023-03-22T09:11:05.873Z,16.5
2023-03-22T09:12:06.227Z,16.6
2023-03-22T09:13:06.496Z,16.6
2023-03-22T09:14:05.790Z,16.6
2023-03-22T09:15:06.141Z,16.6
2023-03-22T09:16:06.573Z,16.7
2023-03-22T09:17:06.520Z,15
2023-03-22T09:18:06.716Z,15
2023-03-22T09:19:06.103Z,16.9
2023-03-22T09:20:16.530Z,17
2023-03-22T09:21:06.346Z,17.1
2023-03-22T09:22:05.837Z,17.1
2023-03-22T09:23:06.099Z,17.2
2023-03-22T09:24:06.289Z,17.2
2023-03-22T09:25:06.811Z,17.3
2023-03-22T09:26:06.204Z,17.3
2023-03-22T09:27:06.583Z,17.4
2023-03-22T09:28:06.942Z,17.4
2023-03-22T09:29:05.847Z,17.5
2023-03-22T09:30:06.201Z,17.5
2023-03-22T09:31:06.839Z,17.5
2023-03-22T09:32:05.819Z,17.6
2023-03-22T09:33:06.211Z,17.7
2023-03-22T09:34:06.409Z,17.7
2023-03-22T09:35:06.614Z,15
2023-03-22T09:36:05.938Z,17.8
2023-03-22T09:37:06.340Z,17.8
2023-03-22T09:38:06.596Z,17.8
2023-03-22T09:39:06.724Z,17.8
2023-03-22T09:40:05.575Z,17.9
2023-03-22T09:41:06.179Z,17.9
2023-03-22T09:42:06.495Z,17.9
2023-03-22T09:43:06.754Z,17.9
2023-03-22T09:44:06.024Z,17.9
2023-03-22T09:45:06.156Z,17.9
2023-03-22T09:46:06.486Z,18
2023-03-22T09:47:06.579Z,18
2023-03-22T09:48:05.980Z,18.1
2023-03-22T09:49:05.926Z,16
2023-03-22T09:50:05.950Z,16
2023-03-22T09:51:06.483Z,18.1
2023-03-22T09:52:06.827Z,18.2
2023-03-22T09:53:06.068Z,18.2
2023-03-22T09:54:06.325Z,18.2
2023-03-22T09:55:06.436Z,18.3
2023-03-22T09:57:05.957Z,18.4
2023-03-22T09:58:06.299Z,18.5
2023-03-22T09:59:06.537Z,18.5
2023-03-22T10:00:06.034Z,18.6
2023-03-22T10:01:06.776Z,18.6
2023-03-22T10:02:07.270Z,15
2023-03-22T10:03:06.594Z,18.8
2023-03-22T10:04:06.174Z,18.8
2023-03-22T10:05:06.280Z,18.8
2023-03-22T10:06:06.483Z,18.8
2023-03-22T10:07:06.809Z,18.9
2023-03-22T10:08:05.979Z,18.9
2023-03-22T10:09:06.206Z,16
2023-03-22T10:10:06.442Z,18.9
2023-03-22T10:11:06.588Z,18.9
2023-03-22T10:12:05.972Z,16
2023-03-22T10:13:06.182Z,19.1
2023-03-22T10:14:06.365Z,19.1
2023-03-22T10:15:06.709Z,19.2
2023-03-22T10:16:06.095Z,19.2
2023-03-22T10:17:06.157Z,19.2
2023-03-22T10:18:06.258Z,19.2
2023-03-22T10:19:06.770Z,19.3
2023-03-22T10:20:06.238Z,19.3
2023-03-22T10:21:06.213Z,19.3
2023-03-22T10:22:06.552Z,19.4
2023-03-22T10:23:06.753Z,19.4
2023-03-22T10:24:05.649Z,19.4
2023-03-22T10:25:06.153Z,19.4
2023-03-22T10:26:06.304Z,19.4
2023-03-22T10:27:06.736Z,17
2023-03-22T10:28:06.063Z,19.6
2023-03-22T10:29:08.056Z,19.6
2023-03-22T10:30:06.547Z,19.5
2023-03-22T10:31:09.916Z,19.6
2023-03-22T10:32:05.960Z,19.5
2023-03-22T10:33:06.295Z,19.5
2023-03-22T10:34:06.711Z,19.6
2023-03-22T10:35:05.920Z,19.6
2023-03-22T10:36:06.196Z,17
2023-03-22T10:37:06.311Z,19.6
2023-03-22T10:38:06.650Z,19.6
2023-03-22T10:39:05.705Z,19.6
2023-03-22T10:40:05.874Z,19.7
2023-03-22T10:41:06.449Z,19.8
2023-03-22T10:42:06.767Z,19.8
2023-03-22T10:43:06.100Z,19.9
2023-03-22T10:44:06.499Z,17
2023-03-22T10:45:06.718Z,20
2023-03-22T10:46:05.938Z,20
2023-03-22T10:47:06.204Z,20.1
2023-03-22T10:48:06.593Z,20.1
2023-03-22T10:49:06.667Z,18
2023-03-22T10:50:06.254Z,20.1
2023-03-22T10:51:06.086Z,20.1
2023-03-22T10:52:06.610Z,20.1
2023-03-22T10:53:06.758Z,20.2
2023-03-22T10:54:06.054Z,20.3
2023-03-22T10:55:08.759Z,20.3
2023-03-22T10:56:05.915Z,20.3
2023-03-22T10:57:06.038Z,20.4
2023-03-22T10:58:06.380Z,20.4
2023-03-22T10:59:05.766Z,20.4
2023-03-22T11:00:05.914Z,20.4
2023-03-22T11:01:06.645Z,20.3
2023-03-22T11:02:06.983Z,20.4
2023-03-22T11:03:07.021Z,20.4
2023-03-22T11:04:06.189Z,20.5
2023-03-22T11:05:06.414Z,20.5
2023-03-22T11:06:06.814Z,20.6
2023-03-22T11:07:05.897Z,20.6
2023-03-22T11:08:06.446Z,20.6
2023-03-22T11:09:06.675Z,20.6
2023-03-22T11:10:05.899Z,20.6
2023-03-22T11:11:06.504Z,20.6
2023-03-22T11:12:05.994Z,20.6
2023-03-22T11:13:06.034Z,20.7
2023-03-22T11:14:06.090Z,20.6
2023-03-22T11:15:06.515Z,20.6
2023-03-22T11:16:06.906Z,20.7
2023-03-22T11:17:06.341Z,20.6
2023-03-22T11:18:06.497Z,20.7
2023-03-22T11:19:06.664Z,20.6
2023-03-22T11:20:07.774Z,20.7
2023-03-22T11:21:06.385Z,20.7
2023-03-22T11:22:06.485Z,18
2023-03-22T11:23:05.862Z,20.7
2023-03-22T11:24:06.125Z,20.8
2023-03-22T11:25:06.282Z,20.7
2023-03-22T11:26:05.837Z,20.8
2023-03-22T11:27:06.228Z,20.8
2023-03-22T11:28:06.464Z,20.9
2023-03-22T11:29:06.636Z,20.9
2023-03-22T11:30:05.869Z,20.9
2023-03-22T11:31:06.232Z,20.9
2023-03-22T11:32:06.956Z,21
2023-03-22T11:33:06.217Z,21
2023-03-22T11:34:06.072Z,21.1
2023-03-22T11:35:06.468Z,21
2023-03-22T11:36:06.830Z,21
2023-03-22T11:37:06.575Z,21.1
2023-03-22T11:38:06.084Z,21.1
2023-03-22T11:39:06.295Z,21.1
2023-03-22T11:40:06.660Z,21.2
2023-03-22T11:41:05.902Z,21.2
2023-03-22T11:42:06.488Z,21.2
2023-03-22T11:43:06.519Z,21.3
2023-03-22T11:44:05.724Z,21.3
2023-03-22T11:45:06.033Z,21.2
2023-03-22T11:46:06.389Z,21.3
2023-03-22T11:47:06.515Z,21.3
2023-03-22T11:48:06.267Z,21.4
2023-03-22T11:49:06.329Z,21.4
2023-03-22T11:50:06.543Z,21.4
2023-03-22T11:51:06.117Z,21.5
2023-03-22T11:52:08.367Z,21.5
2023-03-22T11:53:06.606Z,21.4
2023-03-22T11:54:05.791Z,21.4
2023-03-22T11:55:05.987Z,21.4
2023-03-22T11:56:06.279Z,21.4
2023-03-22T11:57:06.131Z,21.5
2023-03-22T11:58:05.815Z,21.5
2023-03-22T11:59:06.407Z,21.5
2023-03-22T12:00:06.332Z,21.5
2023-03-22T12:01:06.080Z,21.6
2023-03-22T12:02:05.981Z,21.5
2023-03-22T12:03:06.413Z,21.6
2023-03-22T12:04:07.045Z,21.6
2023-03-22T12:05:06.335Z,21.5
2023-03-22T12:06:06.775Z,21.5
2023-03-22T12:07:06.013Z,21.5
2023-03-22T12:08:06.017Z,21.4
2023-03-22T12:09:06.483Z,21.4
2023-03-22T12:10:06.766Z,21.5
2023-03-22T12:11:06.036Z,21.5
2023-03-22T12:12:06.630Z,21.6
2023-03-22T12:13:06.658Z,21.6
2023-03-22T12:14:06.169Z,21.6
2023-03-22T12:15:06.057Z,21.6
2023-03-22T12:16:06.998Z,21.6
2023-03-22T12:17:05.850Z,19
2023-03-22T12:18:09.364Z,21.6
2023-03-22T12:19:06.467Z,21.6
2023-03-22T12:20:06.905Z,21.6
2023-03-22T12:21:06.176Z,21.6
2023-03-22T12:22:06.527Z,21.7
2023-03-22T12:23:06.753Z,21.7
2023-03-22T12:24:05.913Z,21.7
2023-03-22T12:25:06.269Z,21.7
2023-03-22T12:26:06.276Z,21.7
2023-03-22T12:27:06.683Z,21.7
2023-03-22T12:28:06.200Z,21.7
2023-03-22T12:29:06.342Z,21.7
2023-03-22T12:30:06.662Z,21.7
2023-03-22T12:31:05.984Z,21.7
2023-03-22T12:32:06.042Z,21.7
2023-03-22T12:33:06.318Z,21.7
2023-03-22T12:34:06.431Z,19
2023-03-22T12:35:22.572Z,19
2023-03-22T12:36:06.267Z,21.7
2023-03-22T12:37:06.280Z,21.7
2023-03-22T12:38:06.599Z,21.6
2023-03-22T12:39:06.755Z,21.6
2023-03-22T12:40:06.092Z,21.6
2023-03-22T12:41:06.129Z,21.5
2023-03-22T12:42:06.099Z,19
2023-03-22T12:43:06.748Z,21.4
2023-03-22T12:44:05.940Z,21.4
2023-03-22T12:45:09.907Z,21.3
2023-03-22T12:46:06.202Z,21.4
2023-03-22T12:47:06.849Z,21.3
2023-03-22T12:48:06.331Z,21.3
2023-03-22T12:49:06.293Z,21.3
2023-03-22T12:50:06.362Z,21.3
2023-03-22T12:51:06.440Z,21.3
2023-03-22T12:52:06.452Z,21.2
2023-03-22T12:53:06.671Z,21.2
2023-03-22T12:54:06.510Z,21.1
2023-03-22T12:55:06.263Z,21.1
2023-03-22T12:56:06.217Z,21
2023-03-22T12:57:06.462Z,21
2023-03-22T12:58:06.715Z,21
2023-03-22T12:59:06.091Z,20.9
2023-03-22T13:00:06.384Z,21
2023-03-22T13:01:06.912Z,20.9
2023-03-22T13:02:05.722Z,20.9
2023-03-22T13:03:07.472Z,21
2023-03-22T13:04:07.126Z,20.9
2023-03-22T13:05:05.833Z,20.9
2023-03-22T13:06:06.201Z,21
2023-03-22T13:07:06.297Z,21
2023-03-22T13:08:06.657Z,20.9
2023-03-22T13:09:05.767Z,20.9
2023-03-22T13:10:06.185Z,20.9
2023-03-22T13:11:06.467Z,20.9
2023-03-22T13:12:06.733Z,20.9
2023-03-22T13:13:06.077Z,21
2023-03-22T13:14:06.336Z,21
2023-03-22T13:15:06.704Z,21
2023-03-22T13:16:06.997Z,21
2023-03-22T13:17:06.091Z,21
2023-03-22T13:18:06.542Z,20.9
2023-03-22T13:19:06.491Z,20.9
2023-03-22T13:20:06.579Z,20.9
2023-03-22T13:21:06.001Z,20.9
2023-03-22T13:22:06.344Z,19
2023-03-22T13:23:06.582Z,20.9
2023-03-22T13:24:05.805Z,20.9
2023-03-22T13:25:05.973Z,20.9
2023-03-22T13:26:06.513Z,20.9
2023-03-22T13:27:06.562Z,20.9
2023-03-22T13:28:05.737Z,20.9
2023-03-22T13:29:05.916Z,20.8
2023-03-22T13:30:06.393Z,20.8
2023-03-22T13:31:06.553Z,20.8
2023-03-22T13:32:07.198Z,20.8
2023-03-22T13:33:06.689Z,20.8
2023-03-22T13:34:06.481Z,20.8
2023-03-22T13:35:05.882Z,20.8
2023-03-22T13:36:08.720Z,20.7
2023-03-22T13:37:06.336Z,20.7
2023-03-22T13:38:06.552Z,20.7
2023-03-22T13:39:05.562Z,20.7
2023-03-22T13:40:05.848Z,20.7
2023-03-22T13:41:06.241Z,20.7